createdAt,value
2022-10-13T00:00:06.073Z,91.75
2022-10-13T00:01:06.090Z,91.44
2022-10-13T00:02:06.051Z,91.35
2022-10-13T00:03:06.066Z,91.24
2022-10-13T00:04:06.013Z,91.14
2022-10-13T00:05:06.039Z,91.14
2022-10-13T00:06:05.991Z,91.44
2022-10-13T00:07:05.986Z,91.65
2022-10-13T00:08:06.006Z,91.65
2022-10-13T00:09:05.960Z,91.35
2022-10-13T00:10:05.950Z,90.83
2022-10-13T00:11:05.954Z,90.63
2022-10-13T00:12:05.929Z,90.73
2022-10-13T00:13:05.901Z,90.94
2022-10-13T00:14:05.893Z,90.83
2022-10-13T00:15:05.878Z,90.94
2022-10-13T00:16:05.880Z,90.94
2022-10-13T00:17:05.874Z,90.83
2022-10-13T00:18:05.837Z,91.08
2022-10-13T00:19:05.824Z,91.18
2022-10-13T00:20:05.810Z,91.28
2022-10-13T00:21:05.873Z,91.39
2022-10-13T00:22:05.778Z,91.69
2022-10-13T00:23:05.767Z,91.89
2022-10-13T00:24:05.781Z,91.79
2022-10-13T00:25:05.743Z,91.59
2022-10-13T00:26:05.727Z,91.69
2022-10-13T00:27:05.775Z,91.69
2022-10-13T00:28:05.697Z,91.89
2022-10-13T00:29:05.713Z,91.79
2022-10-13T00:30:05.701Z,91.79
2022-10-13T00:31:05.674Z,91.69
2022-10-13T00:32:05.641Z,92.10
2022-10-13T00:33:05.634Z,92.10
2022-10-13T00:34:05.641Z,92.10
2022-10-13T00:35:05.601Z,92.00
2022-10-13T00:36:05.585Z,92.10
2022-10-13T00:37:05.610Z,92.00
2022-10-13T00:38:05.561Z,91.89
2022-10-13T00:39:05.575Z,91.89
2022-10-13T00:40:05.540Z,91.89
2022-10-13T00:41:05.523Z,92.24
2022-10-13T00:42:05.530Z,92.24
2022-10-13T00:43:05.499Z,92.04
2022-10-13T00:44:05.517Z,92.04
2022-10-13T00:45:05.504Z,92.24
2022-10-13T00:46:05.456Z,92.24
2022-10-13T00:47:05.440Z,92.14
2022-10-13T00:48:05.423Z,92.14
2022-10-13T00:49:05.445Z,91.94
2022-10-13T00:50:05.429Z,91.83
2022-10-13T00:51:05.402Z,91.94
2022-10-13T00:52:05.372Z,91.74
2022-10-13T00:53:05.399Z,91.63
2022-10-13T00:54:05.372Z,91.63
2022-10-13T00:55:05.338Z,91.63
2022-10-13T00:56:05.326Z,91.63
2022-10-13T00:57:05.312Z,91.57
2022-10-13T00:58:05.666Z,91.88
2022-10-13T00:59:05.279Z,92.19
2022-10-13T01:00:05.294Z,92.19
2022-10-13T01:01:05.367Z,91.98
2022-10-13T01:02:05.262Z,91.88
2022-10-13T01:03:05.230Z,91.98
2022-10-13T01:04:05.217Z,91.78
2022-10-13T01:05:05.209Z,91.78
2022-10-13T01:06:05.223Z,91.92
2022-10-13T01:07:05.192Z,92.43
2022-10-13T01:08:05.161Z,92.84
2022-10-13T01:09:05.149Z,92.94
2022-10-13T01:10:05.127Z,92.94
2022-10-13T01:11:05.148Z,92.94
2022-10-13T01:12:05.104Z,93.05
2022-10-13T01:13:05.096Z,92.94
2022-10-13T01:14:05.121Z,92.94
2022-10-13T01:15:05.071Z,92.84
2022-10-13T01:16:05.052Z,92.74
2022-10-13T01:17:05.050Z,92.94
2022-10-13T01:18:05.029Z,93.05
2022-10-13T01:19:05.024Z,92.99
2022-10-13T01:20:05.002Z,92.88
2022-10-13T01:21:04.996Z,92.58
2022-10-13T01:22:05.021Z,92.27
2022-10-13T01:23:04.989Z,92.07
2022-10-13T01:24:04.952Z,91.72
2022-10-13T01:25:04.961Z,91.96
2022-10-13T01:26:04.929Z,92.47
2022-10-13T01:27:04.932Z,92.47
2022-10-13T01:28:04.887Z,92.47
2022-10-13T01:29:04.903Z,92.17
2022-10-13T01:30:04.865Z,91.76
2022-10-13T01:31:04.880Z,91.96
2022-10-13T01:32:04.844Z,92.07
2022-10-13T01:33:04.855Z,92.47
2022-10-13T01:34:04.803Z,92.37
2022-10-13T01:35:04.808Z,92.62
2022-10-13T01:36:04.826Z,92.93
2022-10-13T01:37:04.770Z,93.65
2022-10-13T01:38:04.784Z,93.74
2022-10-13T01:39:04.780Z,93.44
2022-10-13T01:40:04.731Z,93.03
2022-10-13T01:41:04.718Z,92.93
2022-10-13T01:42:04.701Z,93.24
2022-10-13T01:43:04.700Z,93.44
2022-10-13T01:44:04.703Z,93.38
2022-10-13T01:45:04.667Z,93.18
2022-10-13T01:46:04.654Z,93.48
2022-10-13T01:47:04.640Z,93.69
2022-10-13T01:48:04.627Z,93.59
2022-10-13T01:49:04.634Z,93.79
2022-10-13T01:50:04.597Z,93.79
2022-10-13T01:51:04.587Z,94.20
2022-10-13T01:52:04.571Z,94.30
2022-10-13T01:53:04.562Z,94.40
2022-10-13T01:54:04.573Z,94.75
2022-10-13T01:55:04.540Z,94.75
2022-10-13T01:56:04.523Z,94.45
2022-10-13T01:57:04.512Z,94.20
2022-10-13T01:58:04.495Z,93.93
2022-10-13T01:59:04.500Z,93.93
2022-10-13T02:00:04.483Z,94.65
2022-10-13T02:01:04.523Z,95.47
2022-10-13T02:02:04.445Z,95.22
2022-10-13T02:03:04.436Z,94.40
2022-10-13T02:04:04.453Z,93.99
2022-10-13T02:05:04.428Z,93.93
2022-10-13T02:06:04.385Z,93.73
2022-10-13T02:07:04.378Z,93.22
2022-10-13T02:08:04.381Z,93.52
2022-10-13T02:09:04.341Z,93.43
2022-10-13T02:10:04.357Z,93.43
2022-10-13T02:11:04.316Z,93.22
2022-10-13T02:12:04.308Z,93.01
2022-10-13T02:13:04.327Z,92.71
2022-10-13T02:14:04.285Z,92.50
2022-10-13T02:15:04.261Z,92.30
2022-10-13T02:16:04.260Z,92.81
2022-10-13T02:17:04.237Z,92.81
2022-10-13T02:18:04.248Z,92.81
2022-10-13T02:19:04.216Z,93.43
2022-10-13T02:20:04.191Z,94.34
2022-10-13T02:21:04.183Z,94.59
2022-10-13T02:22:04.192Z,94.59
2022-10-13T02:23:04.173Z,95.82
2022-10-13T02:24:04.140Z,96.64
2022-10-13T02:25:04.137Z,96.44
2022-10-13T02:26:04.147Z,95.92
2022-10-13T02:27:04.103Z,95.26
2022-10-13T02:28:04.102Z,95.21
2022-10-13T02:29:04.080Z,95.00
2022-10-13T02:30:04.058Z,95.10
2022-10-13T02:31:04.064Z,95.00
2022-10-13T02:32:04.067Z,95.10
2022-10-13T02:33:04.026Z,95.00
2022-10-13T02:34:04.035Z,94.90
2022-10-13T02:35:04.004Z,95.10
2022-10-13T02:36:03.977Z,95.00
2022-10-13T02:37:03.972Z,95.10
2022-10-13T02:38:03.974Z,95.21
2022-10-13T02:39:03.943Z,95.10
2022-10-13T02:40:03.930Z,94.90
2022-10-13T02:41:03.937Z,94.29
2022-10-13T02:42:03.927Z,94.29
2022-10-13T02:43:03.892Z,93.98
2022-10-13T02:44:03.873Z,93.67
2022-10-13T02:45:03.871Z,93.67
2022-10-13T02:46:03.877Z,93.47
2022-10-13T02:47:03.876Z,93.62
2022-10-13T02:48:03.832Z,93.62
2022-10-13T02:49:03.815Z,93.62
2022-10-13T02:50:03.798Z,94.43
2022-10-13T02:51:03.783Z,94.43
2022-10-13T02:52:03.798Z,94.33
2022-10-13T02:53:03.759Z,94.33
2022-10-13T02:54:03.745Z,94.54
2022-10-13T02:55:03.730Z,94.33
2022-10-13T02:56:03.719Z,94.23
2022-10-13T02:57:03.724Z,95.56
2022-10-13T02:58:03.693Z,96.38
2022-10-13T02:59:03.692Z,97.09
2022-10-13T03:00:03.696Z,96.69
2022-10-13T03:01:03.706Z,95.87
2022-10-13T03:02:03.641Z,95.05
2022-10-13T03:03:03.622Z,95.36
2022-10-13T03:04:03.619Z,95.97
2022-10-13T03:05:03.622Z,95.87
2022-10-13T03:06:03.612Z,95.46
2022-10-13T03:07:03.565Z,94.95
2022-10-13T03:08:03.572Z,94.54
2022-10-13T03:09:03.534Z,94.43
2022-10-13T03:10:03.547Z,94.12
2022-10-13T03:11:03.541Z,94.43
2022-10-13T03:12:03.500Z,94.99
2022-10-13T03:13:03.488Z,94.78
2022-10-13T03:14:03.490Z,94.07
2022-10-13T03:15:03.471Z,93.96
2022-10-13T03:16:03.486Z,93.96
2022-10-13T03:17:03.446Z,94.37
2022-10-13T03:18:03.432Z,95.61
2022-10-13T03:19:03.418Z,96.12
2022-10-13T03:20:03.399Z,95.61
2022-10-13T03:21:03.413Z,96.53
2022-10-13T03:22:03.373Z,96.83
2022-10-13T03:23:03.359Z,97.14
2022-10-13T03:24:03.375Z,97.14
2022-10-13T03:25:03.322Z,97.14
2022-10-13T03:26:03.318Z,97.14
2022-10-13T03:27:03.300Z,96.42
2022-10-13T03:28:03.291Z,95.81
2022-10-13T03:29:03.310Z,95.20
2022-10-13T03:30:03.263Z,94.78
2022-10-13T03:31:03.278Z,94.48
2022-10-13T03:32:03.256Z,94.17
2022-10-13T03:33:03.232Z,94.07
2022-10-13T03:34:03.249Z,94.07
2022-10-13T03:35:03.200Z,94.17
2022-10-13T03:36:03.192Z,93.96
2022-10-13T03:37:03.172Z,93.96
2022-10-13T03:38:03.157Z,93.76
2022-10-13T03:39:03.169Z,93.55
2022-10-13T03:40:03.151Z,93.55
2022-10-13T03:41:03.115Z,93.60
2022-10-13T03:42:03.103Z,93.80
2022-10-13T03:43:03.092Z,93.90
2022-10-13T03:44:03.105Z,94.01
2022-10-13T03:45:03.075Z,93.80
2022-10-13T03:46:03.076Z,93.70
2022-10-13T03:47:03.040Z,93.70
2022-10-13T03:48:03.027Z,93.60
2022-10-13T03:49:03.007Z,93.49
2022-10-13T03:50:02.995Z,93.49
2022-10-13T03:51:03.009Z,93.39
2022-10-13T03:52:02.985Z,93.39
2022-10-13T03:53:02.983Z,93.49
2022-10-13T03:54:02.940Z,93.29
2022-10-13T03:55:02.953Z,93.08
2022-10-13T03:56:02.928Z,93.19
2022-10-13T03:57:02.900Z,93.13
2022-10-13T03:58:02.899Z,92.93
2022-10-13T03:59:02.866Z,92.93
2022-10-13T04:00:02.895Z,92.82
2022-10-13T04:01:02.875Z,92.82
2022-10-13T04:02:02.910Z,92.82
2022-10-13T04:03:02.819Z,92.82
2022-10-13T04:04:02.861Z,93.02
2022-10-13T04:05:02.797Z,93.02
2022-10-13T04:06:02.790Z,93.13
2022-10-13T04:07:02.790Z,93.02
2022-10-13T04:08:02.759Z,92.93
2022-10-13T04:09:02.744Z,92.93
2022-10-13T04:10:02.732Z,92.93
2022-10-13T04:11:02.718Z,93.38
2022-10-13T04:12:02.764Z,93.38
2022-10-13T04:13:02.697Z,93.38
2022-10-13T04:14:02.680Z,93.27
2022-10-13T04:15:02.689Z,93.89
2022-10-13T04:16:02.655Z,94.51
2022-10-13T04:17:02.637Z,94.20
2022-10-13T04:18:02.631Z,93.79
2022-10-13T04:19:02.844Z,93.79
2022-10-13T04:20:02.622Z,93.59
2022-10-13T04:21:02.585Z,93.48
2022-10-13T04:22:02.594Z,93.48
2022-10-13T04:23:02.557Z,93.59
2022-10-13T04:24:02.547Z,93.59
2022-10-13T04:25:02.531Z,93.48
2022-10-13T04:26:02.545Z,93.38
2022-10-13T04:27:02.535Z,93.79
2022-10-13T04:28:02.521Z,93.99
2022-10-13T04:29:02.464Z,95.94
2022-10-13T04:30:02.487Z,96.35
2022-10-13T04:31:02.458Z,96.04
2022-10-13T04:32:02.452Z,95.84
2022-10-13T04:33:02.432Z,95.43
2022-10-13T04:34:02.517Z,96.50
2022-10-13T04:35:02.411Z,98.35
2022-10-13T04:36:02.380Z,98.41
2022-10-13T04:37:02.360Z,99.63
2022-10-13T04:38:02.398Z,99.63
2022-10-13T04:39:02.329Z,98.82
2022-10-13T04:40:02.334Z,98.30
2022-10-13T04:41:02.328Z,98.41
2022-10-13T04:42:02.317Z,98.92
2022-10-13T04:43:02.318Z,99.18
2022-10-13T04:44:02.282Z,98.87
2022-10-13T04:45:02.260Z,98.57
2022-10-13T04:46:02.251Z,98.36
2022-10-13T04:47:02.231Z,98.05
2022-10-13T04:48:02.246Z,97.85
2022-10-13T04:49:02.198Z,97.95
2022-10-13T04:50:02.192Z,97.95
2022-10-13T04:51:02.218Z,97.64
2022-10-13T04:52:02.200Z,97.54
2022-10-13T04:53:02.152Z,98.46
2022-10-13T04:54:02.174Z,98.67
2022-10-13T04:55:02.120Z,98.05
2022-10-13T04:56:02.127Z,97.74
2022-10-13T04:57:02.097Z,97.74
2022-10-13T04:58:02.083Z,97.54
2022-10-13T04:59:02.109Z,97.64
2022-10-13T05:00:02.071Z,97.44
2022-10-13T05:01:02.117Z,97.13
2022-10-13T05:02:02.038Z,96.82
2022-10-13T05:03:02.022Z,96.45
2022-10-13T05:04:02.021Z,96.45
2022-10-13T05:05:02.019Z,97.17
2022-10-13T05:06:01.983Z,97.17
2022-10-13T05:07:18.490Z,96.66
2022-10-13T05:08:01.980Z,96.45
2022-10-13T05:09:01.943Z,96.04
2022-10-13T05:10:01.931Z,95.84
2022-10-13T05:11:01.923Z,95.84
2022-10-13T05:12:01.898Z,95.84
2022-10-13T05:13:01.913Z,95.53
2022-10-13T05:14:01.875Z,95.32
2022-10-13T05:15:01.853Z,95.43
2022-10-13T05:16:01.846Z,95.23
2022-10-13T05:17:01.833Z,95.23
2022-10-13T05:18:01.848Z,95.37
2022-10-13T05:19:01.826Z,95.47
2022-10-13T05:20:01.825Z,95.47
2022-10-13T05:21:01.779Z,95.47
2022-10-13T05:22:01.765Z,95.57
2022-10-13T05:23:01.748Z,95.68
2022-10-13T05:24:01.766Z,98.10
2022-10-13T05:25:01.750Z,97.28
2022-10-13T05:26:01.714Z,97.12
2022-10-13T05:27:01.699Z,97.94
2022-10-13T05:28:01.706Z,98.82
2022-10-13T05:29:01.669Z,98.20
2022-10-13T05:30:01.691Z,97.58
2022-10-13T05:31:01.641Z,97.38
2022-10-13T05:32:01.661Z,97.17
2022-10-13T05:33:01.618Z,97.38
2022-10-13T05:34:01.606Z,97.69
2022-10-13T05:35:01.625Z,98.10
2022-10-13T05:36:01.572Z,98.51
2022-10-13T05:37:01.564Z,99.22
2022-10-13T05:38:01.577Z,98.51
2022-10-13T05:39:01.547Z,97.58
2022-10-13T05:40:01.549Z,97.28
2022-10-13T05:41:01.503Z,97.07
2022-10-13T05:42:01.493Z,97.79
2022-10-13T05:43:01.492Z,97.79
2022-10-13T05:44:01.487Z,98.82
2022-10-13T05:45:01.477Z,99.12
2022-10-13T05:46:01.445Z,99.02
2022-10-13T05:47:05.106Z,98.71
2022-10-13T05:48:01.422Z,98.30
2022-10-13T05:49:01.406Z,97.89
2022-10-13T05:50:01.412Z,97.48
2022-10-13T05:51:01.381Z,97.28
2022-10-13T05:52:01.389Z,98.10
2022-10-13T05:53:01.346Z,98.51
2022-10-13T05:54:01.339Z,98.30
2022-10-13T05:55:01.341Z,97.69
2022-10-13T05:56:01.400Z,97.58
2022-10-13T05:57:01.318Z,97.38
2022-10-13T05:58:01.284Z,97.07
2022-10-13T05:59:01.264Z,97.58
2022-10-13T06:00:01.288Z,98.20
2022-10-13T06:01:01.242Z,98.57
2022-10-13T06:02:01.325Z,98.46
2022-10-13T06:03:01.274Z,97.64
2022-10-13T06:04:01.212Z,97.13
2022-10-13T06:05:01.185Z,96.82
2022-10-13T06:06:01.174Z,96.51
2022-10-13T06:07:01.153Z,96.10
2022-10-13T06:08:01.172Z,95.90
2022-10-13T06:09:01.134Z,95.74
2022-10-13T06:10:01.128Z,95.69
2022-10-13T06:11:01.113Z,95.59
2022-10-13T06:12:01.120Z,96.04
2022-10-13T06:13:01.102Z,96.20
2022-10-13T06:14:01.072Z,96.15
2022-10-13T06:15:01.068Z,96.04
2022-10-13T06:16:01.049Z,96.15
2022-10-13T06:17:01.030Z,95.84
2022-10-13T06:18:01.046Z,95.74
2022-10-13T06:19:01.008Z,95.84
2022-10-13T06:20:01.023Z,95.84
2022-10-13T06:21:00.974Z,95.94
2022-10-13T06:22:03.631Z,95.94
2022-10-13T06:23:00.979Z,96.04
2022-10-13T06:24:00.939Z,96.45
2022-10-13T06:25:00.959Z,97.07
2022-10-13T06:26:00.906Z,97.07
2022-10-13T06:27:00.885Z,97.28
2022-10-13T06:28:00.882Z,97.17
2022-10-13T06:29:00.906Z,96.97
2022-10-13T06:30:00.879Z,96.97
2022-10-13T06:31:00.836Z,96.97
2022-10-13T06:32:00.839Z,96.97
2022-10-13T06:33:00.854Z,97.03
2022-10-13T06:34:00.822Z,97.33
2022-10-13T06:35:00.782Z,98.46
2022-10-13T06:36:00.802Z,98.46
2022-10-13T06:37:00.755Z,98.52
2022-10-13T06:38:00.748Z,98.11
2022-10-13T06:39:00.754Z,97.86
2022-10-13T06:40:00.721Z,97.34
2022-10-13T06:41:00.705Z,96.89
2022-10-13T06:42:00.718Z,96.58
2022-10-13T06:43:00.681Z,96.23
2022-10-13T06:44:00.663Z,95.51
2022-10-13T06:45:00.648Z,95.00
2022-10-13T06:46:00.648Z,94.90
2022-10-13T06:47:00.658Z,94.90
2022-10-13T06:48:00.706Z,94.80
2022-10-13T06:49:00.594Z,94.96
2022-10-13T06:50:00.583Z,95.26
2022-10-13T06:51:00.578Z,95.17
2022-10-13T06:52:00.558Z,95.06
2022-10-13T06:53:00.573Z,95.78
2022-10-13T06:54:00.536Z,95.47
2022-10-13T06:55:00.534Z,95.26
2022-10-13T06:56:00.513Z,95.17
2022-10-13T06:57:00.532Z,95.17
2022-10-13T06:58:00.492Z,95.26
2022-10-13T06:59:00.471Z,95.47
2022-10-13T07:00:00.474Z,95.32
2022-10-13T07:01:00.554Z,95.12
2022-10-13T07:02:00.427Z,95.22
2022-10-13T07:03:00.406Z,95.22
2022-10-13T07:04:00.397Z,95.12
2022-10-13T07:05:00.414Z,94.30
2022-10-13T07:06:00.375Z,93.95
2022-10-13T07:07:00.361Z,94.26
2022-10-13T07:08:00.374Z,92.62
2022-10-13T07:09:00.340Z,91.96
2022-10-13T07:10:00.323Z,91.46
2022-10-13T07:11:00.440Z,91.15
2022-10-13T07:12:00.295Z,91.82
2022-10-13T07:13:00.284Z,91.41
2022-10-13T07:15:00.260Z,90.80
2022-10-13T07:16:00.231Z,90.59
2022-10-13T07:17:00.230Z,91.20
2022-10-13T07:18:00.210Z,90.08
2022-10-13T07:19:00.247Z,90.04
2022-10-13T07:20:04.987Z,90.45
2022-10-13T07:21:00.178Z,90.55
2022-10-13T07:22:00.188Z,90.25
2022-10-13T07:23:00.149Z,89.53
2022-10-13T07:24:00.152Z,89.59
2022-10-13T07:25:00.126Z,90.00
2022-10-13T07:26:00.151Z,89.69
2022-10-13T07:27:03.938Z,88.98
2022-10-13T07:28:00.093Z,89.08
2022-10-13T07:29:00.217Z,89.49
2022-10-13T07:30:00.083Z,89.34
2022-10-13T07:31:00.046Z,88.73
2022-10-13T07:32:00.091Z,88.93
2022-10-13T07:33:00.014Z,88.53
2022-10-13T07:34:00.006Z,87.77
2022-10-13T07:34:59.987Z,87.16
2022-10-13T07:36:00.008Z,87.37
2022-10-13T07:36:59.990Z,87.53
2022-10-13T07:37:59.942Z,87.12
2022-10-13T07:38:59.964Z,87.12
2022-10-13T07:39:59.920Z,87.38
2022-10-13T07:40:59.904Z,87.79
2022-10-13T07:41:59.898Z,87.35
2022-10-13T07:42:59.968Z,87.14
2022-10-13T07:43:59.890Z,86.22
2022-10-13T07:44:59.852Z,86.43
2022-10-13T07:45:59.847Z,86.19
2022-10-13T07:46:59.823Z,85.98
2022-10-13T07:47:59.804Z,84.97
2022-10-13T07:48:59.828Z,84.86
2022-10-13T07:49:59.782Z,84.82
2022-10-13T07:50:59.772Z,84.92
2022-10-13T07:51:59.783Z,82.89
2022-10-13T07:52:59.735Z,82.32
2022-10-13T07:53:59.743Z,83.03
2022-10-13T07:54:59.714Z,83.13
2022-10-13T07:55:59.716Z,82.82
2022-10-13T07:56:59.713Z,83.23
2022-10-13T07:57:59.691Z,84.56
2022-10-13T07:58:59.690Z,82.82
2022-10-13T07:59:59.683Z,82.82
2022-10-13T08:00:59.720Z,83.74
2022-10-13T08:01:59.686Z,83.84
2022-10-13T08:02:59.669Z,83.23
2022-10-13T08:03:59.630Z,82.73
2022-10-13T08:04:59.585Z,82.46
2022-10-13T08:05:59.576Z,82.76
2022-10-13T08:06:59.557Z,82.35
2022-10-13T08:07:59.537Z,83.37
2022-10-13T08:08:59.560Z,84.25
2022-10-13T08:09:59.505Z,82.01
2022-10-13T08:10:59.510Z,82.42
2022-10-13T08:12:00.841Z,83.95
2022-10-13T08:12:59.496Z,82.59
2022-10-13T08:13:59.451Z,83.50
2022-10-13T08:15:02.003Z,82.54
2022-10-13T08:16:59.419Z,80.68
2022-10-13T08:17:59.440Z,79.36
2022-10-13T08:18:59.398Z,81.09
2022-10-13T08:19:59.374Z,80.17
2022-10-13T08:21:23.875Z,80.74
2022-10-13T08:22:00.280Z,80.13
2022-10-13T08:22:59.369Z,79.83
2022-10-13T08:23:59.341Z,80.40
2022-10-13T08:24:59.344Z,79.49
2022-10-13T08:25:59.299Z,78.94
2022-10-13T08:26:59.289Z,77.05
2022-10-13T08:28:00.587Z,78.64
2022-10-13T08:29:59.281Z,78.53
2022-10-13T08:30:59.396Z,78.30
2022-10-13T08:31:59.221Z,77.79
2022-10-13T08:32:59.211Z,76.98
2022-10-13T08:33:59.224Z,77.95
2022-10-13T08:34:59.200Z,78.42
2022-10-13T08:35:59.224Z,76.20
2022-10-13T08:36:59.157Z,75.38
2022-10-13T08:37:59.134Z,76.36
2022-10-13T08:38:59.143Z,74.74
2022-10-13T08:39:59.144Z,76.56
2022-10-13T08:40:59.124Z,76.77
2022-10-13T08:41:59.092Z,73.32
2022-10-13T08:43:00.514Z,74.71
2022-10-13T08:44:33.965Z,74.00
2022-10-13T08:45:36.256Z,73.29
2022-10-13T08:45:59.041Z,73.15
2022-10-13T08:46:59.022Z,72.68
2022-10-13T08:47:59.049Z,73.69
2022-10-13T08:48:58.998Z,72.68
2022-10-13T08:50:00.707Z,74.40
2022-10-13T08:50:59.002Z,74.20
2022-10-13T08:51:58.970Z,73.96
2022-10-13T08:52:58.939Z,73.56
2022-10-13T08:53:58.924Z,72.72
2022-10-13T08:54:58.933Z,72.31
2022-10-13T08:55:58.903Z,72.17
2022-10-13T08:56:58.882Z,72.38
2022-10-13T08:57:58.930Z,73.15
2022-10-13T08:58:58.854Z,72.11
2022-10-13T08:59:58.868Z,71.26
2022-10-13T09:00:58.875Z,70.15
2022-10-13T09:01:58.888Z,70.12
2022-10-13T09:02:58.817Z,70.62
2022-10-13T09:03:58.792Z,68.61
2022-10-13T09:04:58.789Z,69.01
2022-10-13T09:05:58.854Z,69.92
2022-10-13T09:06:58.762Z,69.31
2022-10-13T09:07:58.732Z,69.11
2022-10-13T09:08:58.726Z,69.59
2022-10-13T09:09:58.736Z,68.77
2022-10-13T09:10:58.698Z,68.48
2022-10-13T09:11:58.684Z,68.44
2022-10-13T09:12:58.702Z,66.73
2022-10-13T09:13:58.670Z,67.57
2022-10-13T09:14:58.649Z,68.77
2022-10-13T09:15:58.636Z,67.87
2022-10-13T09:16:58.620Z,68.37
2022-10-13T09:17:58.614Z,68.07
2022-10-13T09:18:58.623Z,67.74
2022-10-13T09:19:58.574Z,67.94
2022-10-13T09:20:58.563Z,67.54
2022-10-13T09:21:58.589Z,66.60
2022-10-13T09:22:58.538Z,66.30
2022-10-13T09:23:58.518Z,66.47
2022-10-13T09:24:58.526Z,66.27
2022-10-13T09:25:58.501Z,66.56
2022-10-13T09:26:58.501Z,66.03
2022-10-13T09:27:58.473Z,64.92
2022-10-13T09:28:58.564Z,65.73
2022-10-13T09:29:58.468Z,65.19
2022-10-13T09:30:58.439Z,64.79
2022-10-13T09:31:58.436Z,65.09
2022-10-13T09:32:58.407Z,64.39
2022-10-13T09:33:58.389Z,64.76
2022-10-13T09:34:58.390Z,64.56
2022-10-13T09:35:58.355Z,64.13
2022-10-13T09:36:58.355Z,63.42
2022-10-13T09:37:58.332Z,62.62
2022-10-13T09:38:58.345Z,64.13
2022-10-13T09:39:58.326Z,63.02
2022-10-13T09:40:58.298Z,63.22
2022-10-13T09:41:58.281Z,63.09
2022-10-13T09:42:58.265Z,63.59
2022-10-13T09:43:58.263Z,62.99
2022-10-13T09:44:58.294Z,62.66
2022-10-13T09:45:58.232Z,62.06
2022-10-13T09:46:58.243Z,61.86
2022-10-13T09:47:58.200Z,63.06
2022-10-13T09:48:58.195Z,62.56
2022-10-13T09:50:00.059Z,62.83
2022-10-13T09:50:58.173Z,62.73
2022-10-13T09:51:58.179Z,62.03
2022-10-13T09:52:58.138Z,61.52
2022-10-13T09:53:58.125Z,61.22
2022-10-13T09:54:58.151Z,61.22
2022-10-13T09:55:58.100Z,61.40
2022-10-13T09:56:58.124Z,61.40
2022-10-13T09:57:58.075Z,62.63
2022-10-13T09:58:58.096Z,63.73
2022-10-13T09:59:58.099Z,63.03
2022-10-13T10:00:58.038Z,62.00
2022-10-13T10:01:58.016Z,61.67
2022-10-13T10:02:58.011Z,61.57
2022-10-13T10:03:58.063Z,60.94
2022-10-13T10:04:57.977Z,60.03
2022-10-13T10:05:58.146Z,60.31
2022-10-13T10:06:57.945Z,59.31
2022-10-13T10:07:57.966Z,59.68
2022-10-13T10:09:03.183Z,59.58
2022-10-13T10:09:57.912Z,59.08
2022-10-13T10:10:57.930Z,59.48
2022-10-13T10:11:57.883Z,59.48
2022-10-13T10:12:57.867Z,59.78
2022-10-13T10:13:57.852Z,59.18
2022-10-13T10:14:57.851Z,59.91
2022-10-13T10:15:57.845Z,59.61
2022-10-13T10:16:57.828Z,60.11
2022-10-13T10:17:57.809Z,59.50
2022-10-13T10:18:58.916Z,60.41
2022-10-13T10:19:57.771Z,60.48
2022-10-13T10:20:57.771Z,61.18
2022-10-13T10:21:57.778Z,60.81
2022-10-13T10:22:57.739Z,60.84
2022-10-13T10:23:57.723Z,60.53
2022-10-13T10:24:57.742Z,60.57
2022-10-13T10:25:57.690Z,61.87
2022-10-13T10:26:57.684Z,62.17
2022-10-13T10:27:57.670Z,59.96
2022-10-13T10:28:57.759Z,61.97
2022-10-13T10:29:57.645Z,62.47
2022-10-13T10:30:57.630Z,62.34
2022-10-13T10:31:57.623Z,60.81
2022-10-13T10:32:57.621Z,60.11
2022-10-13T10:33:57.601Z,60.01
2022-10-13T10:34:57.577Z,59.91
2022-10-13T10:35:57.581Z,59.68
2022-10-13T10:36:57.582Z,59.48
2022-10-13T10:37:57.556Z,59.68
2022-10-13T10:38:57.579Z,59.88
2022-10-13T10:39:57.571Z,60.28
2022-10-13T10:40:57.510Z,61.01
2022-10-13T10:41:57.511Z,61.28
2022-10-13T10:42:57.468Z,60.38
2022-10-13T10:43:57.460Z,60.18
2022-10-13T10:44:57.463Z,60.08
2022-10-13T10:45:57.441Z,60.28
2022-10-13T10:46:57.424Z,61.18
2022-10-13T10:47:57.401Z,60.35
2022-10-13T10:48:57.408Z,60.02
2022-10-13T10:49:57.409Z,59.62
2022-10-13T10:50:57.379Z,59.39
2022-10-13T10:51:57.348Z,58.49
2022-10-13T10:52:57.349Z,59.69
2022-10-13T10:53:57.319Z,59.49
2022-10-13T10:54:57.312Z,59.69
2022-10-13T10:55:57.357Z,58.76
2022-10-13T10:56:57.287Z,58.29
2022-10-13T10:57:57.279Z,58.89
2022-10-13T10:58:57.262Z,58.76
2022-10-13T10:59:57.373Z,58.56
2022-10-13T11:00:57.251Z,59.06
2022-10-13T11:01:57.280Z,57.69
2022-10-13T11:02:57.211Z,58.22
2022-10-13T11:03:57.249Z,59.42
2022-10-13T11:04:58.420Z,59.79
2022-10-13T11:05:57.211Z,58.39
2022-10-13T11:06:57.163Z,58.56
2022-10-13T11:07:57.140Z,58.26
2022-10-13T11:08:57.127Z,57.54
2022-10-13T11:09:57.127Z,57.04
2022-10-13T11:10:57.101Z,58.17
2022-10-13T11:11:57.127Z,58.56
2022-10-13T11:12:57.081Z,59.06
2022-10-13T11:13:57.090Z,58.34
2022-10-13T11:14:57.049Z,57.74
2022-10-13T11:15:57.044Z,57.41
2022-10-13T11:16:57.020Z,57.54
2022-10-13T11:17:57.046Z,57.44
2022-10-13T11:18:57.079Z,56.61
2022-10-13T11:19:56.990Z,56.68
2022-10-13T11:20:56.985Z,56.29
2022-10-13T11:21:56.964Z,56.36
2022-10-13T11:22:56.941Z,55.26
2022-10-13T11:24:01.786Z,54.66
2022-10-13T11:24:57.000Z,56.18
2022-10-13T11:25:56.904Z,56.79
2022-10-13T11:26:56.893Z,55.66
2022-10-13T11:27:56.915Z,56.36
2022-10-13T11:28:56.924Z,55.04
2022-10-13T11:29:56.868Z,54.94
2022-10-13T11:30:56.833Z,54.66
2022-10-13T11:31:56.889Z,55.29
2022-10-13T11:32:56.840Z,57.09
2022-10-13T11:33:56.800Z,55.96
2022-10-13T11:34:56.954Z,54.96
2022-10-13T11:35:56.766Z,54.64
2022-10-13T11:36:56.762Z,54.74
2022-10-13T11:38:06.693Z,55.43
2022-10-13T11:38:56.742Z,55.04
2022-10-13T11:39:56.744Z,54.64
2022-10-13T11:40:56.729Z,54.44
2022-10-13T11:41:56.724Z,55.24
2022-10-13T11:42:58.516Z,55.36
2022-10-13T11:43:56.692Z,55.93
2022-10-13T11:44:56.731Z,53.47
2022-10-13T11:45:56.673Z,55.56
2022-10-13T11:46:56.631Z,56.16
2022-10-13T11:47:56.662Z,55.16
2022-10-13T11:48:56.617Z,55.04
2022-10-13T11:49:56.651Z,54.71
2022-10-13T11:50:56.580Z,54.21
2022-10-13T11:51:56.599Z,54.49
2022-10-13T11:52:56.605Z,54.46
2022-10-13T11:53:56.545Z,53.46
2022-10-13T11:54:56.527Z,53.66
2022-10-13T11:55:56.519Z,53.74
2022-10-13T11:56:56.530Z,54.56
2022-10-13T11:57:56.498Z,52.94
2022-10-13T11:58:56.479Z,52.64
2022-10-13T11:59:56.487Z,52.67
2022-10-13T12:00:56.478Z,52.86
2022-10-13T12:01:56.519Z,52.37
2022-10-13T12:02:56.503Z,52.47
2022-10-13T12:03:56.412Z,53.19
2022-10-13T12:04:56.400Z,54.19
2022-10-13T12:05:56.408Z,53.78
2022-10-13T12:06:56.386Z,53.89
2022-10-13T12:07:56.396Z,54.19
2022-10-13T12:08:56.382Z,54.68
2022-10-13T12:09:56.334Z,54.88
2022-10-13T12:10:56.331Z,53.78
2022-10-13T12:11:57.042Z,55.58
2022-10-13T12:12:56.287Z,54.98
2022-10-13T12:13:56.324Z,54.16
2022-10-13T12:14:58.636Z,53.76
2022-10-13T12:15:56.259Z,53.76
2022-10-13T12:17:56.231Z,53.99
2022-10-13T12:18:56.238Z,54.81
2022-10-13T12:19:56.253Z,54.41
2022-10-13T12:20:56.189Z,55.24
2022-10-13T12:21:56.209Z,54.24
2022-10-13T12:22:56.174Z,54.53
2022-10-13T12:23:56.180Z,55.43
2022-10-13T12:24:56.141Z,55.24
2022-10-13T12:25:56.138Z,54.94
2022-10-13T12:26:56.150Z,54.14
2022-10-13T12:27:56.098Z,54.34
2022-10-13T12:28:56.224Z,54.44
2022-10-13T12:29:56.094Z,55.04
2022-10-13T12:30:56.056Z,55.76
2022-10-13T12:31:56.075Z,55.16
2022-10-13T12:32:56.034Z,56.29
2022-10-13T12:33:56.020Z,55.69
2022-10-13T12:34:56.040Z,56.09
2022-10-13T12:35:55.998Z,56.29
2022-10-13T12:36:55.991Z,56.68
2022-10-13T12:37:55.975Z,57.58
2022-10-13T12:38:55.962Z,56.88
2022-10-13T12:39:55.969Z,56.29
2022-10-13T12:40:55.930Z,55.96
2022-10-13T12:41:55.941Z,56.06
2022-10-13T12:42:55.930Z,56.59
2022-10-13T12:43:55.893Z,56.59
2022-10-13T12:44:55.941Z,56.51
2022-10-13T12:45:55.886Z,57.01
2022-10-13T12:46:55.855Z,57.14
2022-10-13T12:47:55.837Z,57.51
2022-10-13T12:48:55.830Z,57.81
2022-10-13T12:49:55.850Z,58.04
2022-10-13T12:50:55.793Z,57.74
2022-10-13T12:51:55.837Z,57.21
2022-10-13T12:52:55.788Z,56.94
2022-10-13T12:53:55.775Z,57.14
2022-10-13T12:54:55.745Z,57.93
2022-10-13T12:55:55.763Z,58.37